Terminal Aerodrome Forecast
Issued by NWS

Home | Current Version | Previous Version | Text Only | Print | Product List | Glossary On
Versions: 1 2 3 4 5 6 7 8 9 10 11 12
000
FTUS43 KOAX 220500 RRA
TAFCDR
TAF
KCDR 220549Z 2206/2306 VRB03KT P6SM BKN100
     FM221900 12010KT P6SM VCTS SCT040CB BKN100
     FM230300 12006KT 6SM BR VCTS SCT020CB OVC035=

USA.gov is the U.S. government's official web portal to all federal, state and local government web resources and services.